Terminal Aerodrome Forecast
Issued by NWS Cleveland, OH

Home | Current Version | Previous Version | Text Only | Print | Product List | Glossary On
Versions: 1 2 3 4 5 6 7 8 9 10 11 12 13 14 15 16
378
FTUS41 KCLE 171739
TAFMFD
TAF
KMFD 171739Z 1718/1818 17010KT P6SM BKN025
     FM171900 19012G20KT P6SM VCTS SCT025 BKN035CB
      TEMPO 1719/1721 2SM TSRA BKN015CB
     FM172300 20010KT P6SM SCT040 BKN150
     FM180800 23007KT 5SM BR BKN015
     FM181400 22008KT P6SM BKN025=

USA.gov is the U.S. government's official web portal to all federal, state and local government web resources and services.